sensor_id;sensor_type;location;lat;lon;timestamp;pressure;altitude;pressure_sealevel;temperature;humidity
48622;BME280;34421;48.944;9.460;2022-08-21T00:00:27;98614.22;;;17.68;69.56
48622;BME280;34421;48.944;9.460;2022-08-21T00:02:56;98615.81;;;17.64;69.60
48622;BME280;34421;48.944;9.460;2022-08-21T00:05:24;98609.84;;;17.62;69.61
48622;BME280;34421;48.944;9.460;2022-08-21T00:07:50;98603.59;;;17.57;69.42
48622;BME280;34421;48.944;9.460;2022-08-21T00:10:16;98611.38;;;17.53;69.35
48622;BME280;34421;48.944;9.460;2022-08-21T00:12:42;98613.75;;;17.49;69.85
48622;BME280;34421;48.944;9.460;2022-08-21T00:15:10;98607.00;;;17.47;68.89
48622;BME280;34421;48.944;9.460;2022-08-21T00:17:36;98613.94;;;17.43;68.96
48622;BME280;34421;48.944;9.460;2022-08-21T00:20:05;98610.69;;;17.41;68.73
48622;BME280;34421;48.944;9.460;2022-08-21T00:22:31;98612.81;;;17.39;69.10
48622;BME280;34421;48.944;9.460;2022-08-21T00:24:57;98608.25;;;17.39;69.72
48622;BME280;34421;48.944;9.460;2022-08-21T00:27:23;98612.25;;;17.37;69.26
48622;BME280;34421;48.944;9.460;2022-08-21T00:29:48;98611.38;;;17.31;69.15
48622;BME280;34421;48.944;9.460;2022-08-21T00:32:20;98611.31;;;17.26;69.02
48622;BME280;34421;48.944;9.460;2022-08-21T00:34:46;98607.50;;;17.22;69.45
48622;BME280;34421;48.944;9.460;2022-08-21T00:37:11;98610.13;;;17.17;69.89
48622;BME280;34421;48.944;9.460;2022-08-21T00:39:36;98607.94;;;17.14;69.48
48622;BME280;34421;48.944;9.460;2022-08-21T00:42:02;98602.81;;;17.12;69.22
48622;BME280;34421;48.944;9.460;2022-08-21T00:44:27;98603.31;;;17.09;69.44
48622;BME280;34421;48.944;9.460;2022-08-21T00:46:53;98605.41;;;17.07;69.20
48622;BME280;34421;48.944;9.460;2022-08-21T00:49:18;98597.03;;;17.03;69.71
48622;BME280;34421;48.944;9.460;2022-08-21T00:51:49;98593.81;;;17.01;69.51
48622;BME280;34421;48.944;9.460;2022-08-21T00:54:17;98592.41;;;16.99;69.67
48622;BME280;34421;48.944;9.460;2022-08-21T00:56:43;98604.47;;;16.96;69.76
48622;BME280;34421;48.944;9.460;2022-08-21T00:59:09;98606.84;;;16.93;69.56
48622;BME280;34421;48.944;9.460;2022-08-21T01:01:35;98593.91;;;16.90;69.86
48622;BME280;34421;48.944;9.460;2022-08-21T01:04:01;98602.22;;;16.88;69.43
48622;BME280;34421;48.944;9.460;2022-08-21T01:06:26;98598.44;;;16.89;69.27
48622;BME280;34421;48.944;9.460;2022-08-21T01:08:52;98598.72;;;16.88;69.44
48622;BME280;34421;48.944;9.460;2022-08-21T01:11:17;98595.72;;;16.84;69.27
48622;BME280;34421;48.944;9.460;2022-08-21T01:13:43;98600.19;;;16.78;69.01
48622;BME280;34421;48.944;9.460;2022-08-21T01:16:13;98590.94;;;16.74;69.75
48622;BME280;34421;48.944;9.460;2022-08-21T01:18:40;98589.34;;;16.73;69.03
48622;BME280;34421;48.944;9.460;2022-08-21T01:21:19;98590.63;;;16.71;69.79
48622;BME280;34421;48.944;9.460;2022-08-21T01:23:48;98589.25;;;16.68;69.04
48622;BME280;34421;48.944;9.460;2022-08-21T01:26:16;98595.13;;;16.65;69.75
48622;BME280;34421;48.944;9.460;2022-08-21T01:28:47;98599.69;;;16.64;68.91
48622;BME280;34421;48.944;9.460;2022-08-21T01:31:14;98597.28;;;16.63;69.63
48622;BME280;34421;48.944;9.460;2022-08-21T01:33:40;98598.06;;;16.63;69.00
48622;BME280;34421;48.944;9.460;2022-08-21T01:36:05;98603.94;;;16.60;69.00
48622;BME280;34421;48.944;9.460;2022-08-21T01:38:31;98592.63;;;16.58;69.86
48622;BME280;34421;48.944;9.460;2022-08-21T01:40:57;98593.44;;;16.59;69.46
48622;BME280;34421;48.944;9.460;2022-08-21T01:43:23;98598.25;;;16.57;69.20
48622;BME280;34421;48.944;9.460;2022-08-21T01:45:48;98590.91;;;16.52;69.62
48622;BME280;34421;48.944;9.460;2022-08-21T01:48:13;98591.63;;;16.48;69.78
48622;BME280;34421;48.944;9.460;2022-08-21T01:50:39;98587.34;;;16.47;69.50
48622;BME280;34421;48.944;9.460;2022-08-21T01:53:04;98589.69;;;16.43;70.02
48622;BME280;34421;48.944;9.460;2022-08-21T01:55:30;98583.19;;;16.39;69.75
48622;BME280;34421;48.944;9.460;2022-08-21T01:57:57;98591.50;;;16.37;70.33
48622;BME280;34421;48.944;9.460;2022-08-21T02:00:23;98591.50;;;16.37;69.88
48622;BME280;34421;48.944;9.460;2022-08-21T02:02:48;98583.44;;;16.37;69.48
48622;BME280;34421;48.944;9.460;2022-08-21T02:05:14;98587.19;;;16.36;70.19
48622;BME280;34421;48.944;9.460;2022-08-21T02:07:43;98592.78;;;16.35;70.21
48622;BME280;34421;48.944;9.460;2022-08-21T02:10:11;98587.91;;;16.32;69.81
48622;BME280;34421;48.944;9.460;2022-08-21T02:12:38;98581.16;;;16.29;69.75
48622;BME280;34421;48.944;9.460;2022-08-21T02:15:05;98584.59;;;16.25;70.19
48622;BME280;34421;48.944;9.460;2022-08-21T02:17:54;98578.31;;;16.19;70.30
48622;BME280;34421;48.944;9.460;2022-08-21T02:22:47;98578.38;;;16.07;70.68
48622;BME280;34421;48.944;9.460;2022-08-21T02:25:14;98574.09;;;16.06;70.86
48622;BME280;34421;48.944;9.460;2022-08-21T02:27:42;98583.44;;;16.04;70.07
48622;BME280;34421;48.944;9.460;2022-08-21T02:30:11;98582.63;;;16.03;70.20
48622;BME280;34421;48.944;9.460;2022-08-21T02:32:37;98582.84;;;16.02;70.84
48622;BME280;34421;48.944;9.460;2022-08-21T02:35:03;98585.53;;;16.02;70.15
48622;BME280;34421;48.944;9.460;2022-08-21T02:37:28;98576.91;;;16.00;69.93
48622;BME280;34421;48.944;9.460;2022-08-21T02:39:53;98577.66;;;15.95;71.00
48622;BME280;34421;48.944;9.460;2022-08-21T02:42:19;98586.72;;;15.94;70.17
48622;BME280;34421;48.944;9.460;2022-08-21T02:44:44;98588.53;;;15.88;70.07
48622;BME280;34421;48.944;9.460;2022-08-21T02:47:09;98580.94;;;15.85;70.38
48622;BME280;34421;48.944;9.460;2022-08-21T02:49:35;98582.00;;;15.84;70.97
48622;BME280;34421;48.944;9.460;2022-08-21T02:52:00;98573.72;;;15.86;70.20
48622;BME280;34421;48.944;9.460;2022-08-21T02:54:25;98568.00;;;15.82;70.41
48622;BME280;34421;48.944;9.460;2022-08-21T02:56:51;98572.72;;;15.75;71.05
48622;BME280;34421;48.944;9.460;2022-08-21T02:59:16;98576.16;;;15.70;70.91
48622;BME280;34421;48.944;9.460;2022-08-21T03:01:41;98576.69;;;15.72;70.75
48622;BME280;34421;48.944;9.460;2022-08-21T03:04:07;98572.88;;;15.68;70.18
48622;BME280;34421;48.944;9.460;2022-08-21T03:06:32;98572.25;;;15.66;70.23
48622;BME280;34421;48.944;9.460;2022-08-21T03:08:59;98570.88;;;15.64;70.24
48622;BME280;34421;48.944;9.460;2022-08-21T03:11:24;98569.72;;;15.60;70.43
48622;BME280;34421;48.944;9.460;2022-08-21T03:13:51;98568.59;;;15.56;70.67
48622;BME280;34421;48.944;9.460;2022-08-21T03:16:17;98567.75;;;15.55;71.03
48622;BME280;34421;48.944;9.460;2022-08-21T03:18:44;98572.09;;;15.56;70.38
48622;BME280;34421;48.944;9.460;2022-08-21T03:21:10;98563.56;;;15.59;70.91
48622;BME280;34421;48.944;9.460;2022-08-21T03:23:36;98564.38;;;15.60;70.70
48622;BME280;34421;48.944;9.460;2022-08-21T03:26:02;98567.28;;;15.58;70.90
48622;BME280;34421;48.944;9.460;2022-08-21T03:28:28;98574.78;;;15.56;70.83
48622;BME280;34421;48.944;9.460;2022-08-21T03:30:53;98577.69;;;15.55;70.88
48622;BME280;34421;48.944;9.460;2022-08-21T03:33:20;98579.22;;;15.50;70.19
48622;BME280;34421;48.944;9.460;2022-08-21T03:35:48;98581.09;;;15.50;70.51
48622;BME280;34421;48.944;9.460;2022-08-21T03:38:15;98575.63;;;15.45;70.29
48622;BME280;34421;48.944;9.460;2022-08-21T03:40:42;98578.78;;;15.42;70.68
48622;BME280;34421;48.944;9.460;2022-08-21T03:43:08;98571.81;;;15.41;70.34
48622;BME280;34421;48.944;9.460;2022-08-21T03:45:34;98576.59;;;15.39;70.31
48622;BME280;34421;48.944;9.460;2022-08-21T03:48:03;98576.00;;;15.37;70.91
48622;BME280;34421;48.944;9.460;2022-08-21T03:50:33;98588.81;;;15.35;70.46
48622;BME280;34421;48.944;9.460;2022-08-21T03:52:59;98590.97;;;15.33;70.16
48622;BME280;34421;48.944;9.460;2022-08-21T03:55:25;98590.63;;;15.29;70.39
48622;BME280;34421;48.944;9.460;2022-08-21T03:57:51;98592.72;;;15.27;70.78
48622;BME280;34421;48.944;9.460;2022-08-21T04:00:17;98588.88;;;15.23;70.31
48622;BME280;34421;48.944;9.460;2022-08-21T04:02:44;98594.69;;;15.20;70.98
48622;BME280;34421;48.944;9.460;2022-08-21T04:05:12;98587.97;;;15.17;70.17
48622;BME280;34421;48.944;9.460;2022-08-21T04:07:39;98590.88;;;15.16;70.55
48622;BME280;34421;48.944;9.460;2022-08-21T04:10:06;98594.84;;;15.13;70.59
48622;BME280;34421;48.944;9.460;2022-08-21T04:12:32;98596.38;;;15.09;71.09
48622;BME280;34421;48.944;9.460;2022-08-21T04:14:57;98593.69;;;15.09;70.51
48622;BME280;34421;48.944;9.460;2022-08-21T04:17:23;98599.75;;;15.04;71.07
48622;BME280;34421;48.944;9.460;2022-08-21T04:19:48;98592.19;;;15.01;70.76
48622;BME280;34421;48.944;9.460;2022-08-21T04:22:15;98597.78;;;15.00;70.67
48622;BME280;34421;48.944;9.460;2022-08-21T04:24:40;98606.88;;;14.99;70.93
48622;BME280;34421;48.944;9.460;2022-08-21T04:27:05;98606.31;;;14.97;71.20
48622;BME280;34421;48.944;9.460;2022-08-21T04:29:31;98611.41;;;14.98;71.37
48622;BME280;34421;48.944;9.460;2022-08-21T04:31:56;98612.22;;;14.99;70.76
48622;BME280;34421;48.944;9.460;2022-08-21T04:34:21;98620.06;;;15.00;70.80
48622;BME280;34421;48.944;9.460;2022-08-21T04:36:47;98622.94;;;14.99;71.12
48622;BME280;34421;48.944;9.460;2022-08-21T04:39:12;98624.59;;;15.00;70.47
48622;BME280;34421;48.944;9.460;2022-08-21T04:41:37;98626.22;;;15.01;70.41
48622;BME280;34421;48.944;9.460;2022-08-21T04:44:03;98625.41;;;15.00;71.29
48622;BME280;34421;48.944;9.460;2022-08-21T04:46:29;98624.59;;;15.00;71.13
48622;BME280;34421;48.944;9.460;2022-08-21T04:48:55;98633.69;;;14.99;71.39
48622;BME280;34421;48.944;9.460;2022-08-21T04:51:25;98636.13;;;15.00;70.83
48622;BME280;34421;48.944;9.460;2022-08-21T04:53:58;98636.47;;;15.04;71.10
48622;BME280;34421;48.944;9.460;2022-08-21T04:56:30;98639.41;;;15.02;71.15
48622;BME280;34421;48.944;9.460;2022-08-21T04:58:58;98645.81;;;15.01;70.74
48622;BME280;34421;48.944;9.460;2022-08-21T05:01:27;98643.94;;;15.02;70.66
48622;BME280;34421;48.944;9.460;2022-08-21T05:03:56;98640.22;;;15.03;70.93
48622;BME280;34421;48.944;9.460;2022-08-21T05:06:23;98638.56;;;15.02;70.67
48622;BME280;34421;48.944;9.460;2022-08-21T05:08:51;98640.22;;;15.03;70.81
48622;BME280;34421;48.944;9.460;2022-08-21T05:11:18;98641.84;;;15.04;70.97
48622;BME280;34421;48.944;9.460;2022-08-21T05:13:45;98648.84;;;15.05;71.31
48622;BME280;34421;48.944;9.460;2022-08-21T05:16:11;98647.78;;;15.06;70.89
48622;BME280;34421;48.944;9.460;2022-08-21T05:18:36;98651.06;;;15.08;70.76
48622;BME280;34421;48.944;9.460;2022-08-21T05:21:02;98644.16;;;15.12;71.36
48622;BME280;34421;48.944;9.460;2022-08-21T05:23:27;98647.19;;;15.16;71.33
48622;BME280;34421;48.944;9.460;2022-08-21T05:25:53;98645.66;;;15.20;71.07
48622;BME280;34421;48.944;9.460;2022-08-21T05:28:19;98649.75;;;15.22;71.30
48622;BME280;34421;48.944;9.460;2022-08-21T05:30:44;98647.44;;;15.26;71.22
48622;BME280;34421;48.944;9.460;2022-08-21T05:33:10;98649.84;;;15.27;71.43
48622;BME280;34421;48.944;9.460;2022-08-21T05:35:36;98648.31;;;15.32;71.52
48622;BME280;34421;48.944;9.460;2022-08-21T05:38:03;98653.13;;;15.30;71.87
48622;BME280;34421;48.944;9.460;2022-08-21T05:40:29;98648.78;;;15.28;71.87
48622;BME280;34421;48.944;9.460;2022-08-21T05:42:55;98657.22;;;15.32;71.51
48622;BME280;34421;48.944;9.460;2022-08-21T05:45:28;98653.22;;;15.35;71.83
48622;BME280;34421;48.944;9.460;2022-08-21T05:47:53;98649.03;;;15.39;71.59
48622;BME280;34421;48.944;9.460;2022-08-21T05:50:20;98654.38;;;15.39;71.99
48622;BME280;34421;48.944;9.460;2022-08-21T05:52:45;98650.97;;;15.43;71.96
48622;BME280;34421;48.944;9.460;2022-08-21T05:55:10;98658.06;;;15.49;71.83
48622;BME280;34421;48.944;9.460;2022-08-21T05:57:36;98651.78;;;15.56;72.31
48622;BME280;34421;48.944;9.460;2022-08-21T06:00:03;98650.00;;;15.61;71.82
48622;BME280;34421;48.944;9.460;2022-08-21T06:02:28;98652.19;;;15.64;72.28
48622;BME280;34421;48.944;9.460;2022-08-21T06:04:56;98655.28;;;15.68;72.48
48622;BME280;34421;48.944;9.460;2022-08-21T06:07:21;98657.00;;;15.74;72.56
48622;BME280;34421;48.944;9.460;2022-08-21T06:09:46;98655.47;;;15.78;72.38
48622;BME280;34421;48.944;9.460;2022-08-21T06:12:13;98659.06;;;15.84;72.89
48622;BME280;34421;48.944;9.460;2022-08-21T06:14:40;98657.50;;;15.88;72.76
48622;BME280;34421;48.944;9.460;2022-08-21T06:17:08;98654.94;;;15.93;73.06
48622;BME280;34421;48.944;9.460;2022-08-21T06:19:34;98659.34;;;15.99;73.09
48622;BME280;34421;48.944;9.460;2022-08-21T06:21:59;98655.94;;;16.04;72.31
48622;BME280;34421;48.944;9.460;2022-08-21T06:24:25;98655.78;;;16.10;73.26
48622;BME280;34421;48.944;9.460;2022-08-21T06:26:51;98655.03;;;16.15;72.92
48622;BME280;34421;48.944;9.460;2022-08-21T06:29:16;98651.66;;;16.20;72.84
48622;BME280;34421;48.944;9.460;2022-08-21T06:31:43;98651.47;;;16.26;72.28
48622;BME280;34421;48.944;9.460;2022-08-21T06:34:08;98658.03;;;16.30;72.23
48622;BME280;34421;48.944;9.460;2022-08-21T06:36:34;98651.69;;;16.36;72.86
48622;BME280;34421;48.944;9.460;2022-08-21T06:38:59;98650.69;;;16.43;72.42
48622;BME280;34421;48.944;9.460;2022-08-21T06:41:25;98651.09;;;16.51;73.05
48622;BME280;34421;48.944;9.460;2022-08-21T06:43:50;98651.75;;;16.58;72.72
48622;BME280;34421;48.944;9.460;2022-08-21T06:46:15;98652.16;;;16.67;72.66
48622;BME280;34421;48.944;9.460;2022-08-21T06:48:41;98649.28;;;16.74;73.36
48622;BME280;34421;48.944;9.460;2022-08-21T06:51:06;98646.47;;;16.80;72.58
48622;BME280;34421;48.944;9.460;2022-08-21T06:53:32;98645.25;;;16.88;72.93
48622;BME280;34421;48.944;9.460;2022-08-21T06:55:58;98641.56;;;16.94;72.92
48622;BME280;34421;48.944;9.460;2022-08-21T06:58:23;98635.19;;;17.00;73.37
48622;BME280;34421;48.944;9.460;2022-08-21T07:00:50;98642.25;;;17.06;73.16
48622;BME280;34421;48.944;9.460;2022-08-21T07:03:21;98647.72;;;17.12;72.84
48622;BME280;34421;48.944;9.460;2022-08-21T07:05:48;98641.59;;;17.16;73.07
48622;BME280;34421;48.944;9.460;2022-08-21T07:08:13;98647.31;;;17.20;72.61
48622;BME280;34421;48.944;9.460;2022-08-21T07:10:39;98646.03;;;17.27;72.28
48622;BME280;34421;48.944;9.460;2022-08-21T07:13:04;98648.56;;;17.34;71.68
48622;BME280;34421;48.944;9.460;2022-08-21T07:15:30;98642.19;;;17.40;71.62
48622;BME280;34421;48.944;9.460;2022-08-21T07:17:56;98637.16;;;17.49;71.73
48622;BME280;34421;48.944;9.460;2022-08-21T07:20:22;98636.22;;;17.60;72.44
48622;BME280;34421;48.944;9.460;2022-08-21T07:22:47;98636.03;;;17.67;71.65
48622;BME280;34421;48.944;9.460;2022-08-21T07:25:12;98634.75;;;17.74;71.33
48622;BME280;34421;48.944;9.460;2022-08-21T07:27:38;98638.91;;;17.82;71.43
48622;BME280;34421;48.944;9.460;2022-08-21T07:30:04;98630.63;;;17.89;70.86
48622;BME280;34421;48.944;9.460;2022-08-21T07:32:30;98635.25;;;17.93;70.61
48622;BME280;34421;48.944;9.460;2022-08-21T07:34:56;98631.81;;;17.98;70.27
48622;BME280;34421;48.944;9.460;2022-08-21T07:37:21;98629.97;;;18.04;70.14
48622;BME280;34421;48.944;9.460;2022-08-21T07:39:46;98629.53;;;18.12;69.82
48622;BME280;34421;48.944;9.460;2022-08-21T07:42:14;98636.59;;;18.18;69.99
48622;BME280;34421;48.944;9.460;2022-08-21T07:44:40;98620.44;;;18.23;69.58
48622;BME280;34421;48.944;9.460;2022-08-21T07:47:05;98626.69;;;18.29;68.98
48622;BME280;34421;48.944;9.460;2022-08-21T07:49:30;98626.75;;;18.34;68.68
48622;BME280;34421;48.944;9.460;2022-08-21T07:51:56;98622.19;;;18.39;68.31
48622;BME280;34421;48.944;9.460;2022-08-21T07:54:21;98623.59;;;18.47;68.16
48622;BME280;34421;48.944;9.460;2022-08-21T07:56:47;98627.97;;;18.53;68.07
48622;BME280;34421;48.944;9.460;2022-08-21T07:59:12;98629.31;;;18.56;67.83
48622;BME280;34421;48.944;9.460;2022-08-21T08:01:37;98620.19;;;18.62;67.74
48622;BME280;34421;48.944;9.460;2022-08-21T08:04:03;98616.50;;;18.68;67.35
48622;BME280;34421;48.944;9.460;2022-08-21T08:06:29;98625.19;;;18.75;67.10
48622;BME280;34421;48.944;9.460;2022-08-21T08:08:55;98617.66;;;18.77;67.18
48622;BME280;34421;48.944;9.460;2022-08-21T08:11:21;98618.25;;;18.84;66.39
48622;BME280;34421;48.944;9.460;2022-08-21T08:13:49;98607.72;;;18.88;65.64
48622;BME280;34421;48.944;9.460;2022-08-21T08:16:15;98604.78;;;18.95;65.26
48622;BME280;34421;48.944;9.460;2022-08-21T08:18:41;98603.22;;;18.99;65.30
48622;BME280;34421;48.944;9.460;2022-08-21T08:21:07;98606.47;;;19.06;65.52
48622;BME280;34421;48.944;9.460;2022-08-21T08:23:33;98606.78;;;19.15;65.05
48622;BME280;34421;48.944;9.460;2022-08-21T08:25:58;98599.00;;;19.23;65.03
48622;BME280;34421;48.944;9.460;2022-08-21T08:28:24;98598.22;;;19.28;64.57
48622;BME280;34421;48.944;9.460;2022-08-21T08:30:50;98599.88;;;19.34;63.87
48622;BME280;34421;48.944;9.460;2022-08-21T08:33:16;98598.53;;;19.37;63.78
48622;BME280;34421;48.944;9.460;2022-08-21T08:35:45;98596.94;;;19.46;63.72
48622;BME280;34421;48.944;9.460;2022-08-21T08:38:10;98588.31;;;19.54;63.57
48622;BME280;34421;48.944;9.460;2022-08-21T08:40:57;98586.50;;;19.65;63.47
48622;BME280;34421;48.944;9.460;2022-08-21T08:43:26;98591.09;;;19.69;62.95
48622;BME280;34421;48.944;9.460;2022-08-21T08:45:53;98585.16;;;19.77;62.78
48622;BME280;34421;48.944;9.460;2022-08-21T08:48:52;98580.31;;;19.85;62.36
48622;BME280;34421;48.944;9.460;2022-08-21T08:54:21;98582.78;;;19.96;61.15
48622;BME280;34421;48.944;9.460;2022-08-21T08:56:51;98577.91;;;20.03;60.23
48622;BME280;34421;48.944;9.460;2022-08-21T08:59:23;98583.59;;;20.12;60.78
48622;BME280;34421;48.944;9.460;2022-08-21T09:01:52;98578.16;;;20.22;60.42
48622;BME280;34421;48.944;9.460;2022-08-21T09:04:22;98578.72;;;20.30;60.63
48622;BME280;34421;48.944;9.460;2022-08-21T09:12:12;98572.78;;;20.53;58.73
48622;BME280;34421;48.944;9.460;2022-08-21T09:14:51;98577.09;;;20.59;58.80
48622;BME280;34421;48.944;9.460;2022-08-21T09:26:17;98560.25;;;20.88;57.76
48622;BME280;34421;48.944;9.460;2022-08-21T09:28:44;98564.31;;;20.96;57.95
48622;BME280;34421;48.944;9.460;2022-08-21T09:31:21;98561.84;;;21.04;57.05
48622;BME280;34421;48.944;9.460;2022-08-21T09:33:47;98558.28;;;21.09;56.82
48622;BME280;34421;48.944;9.460;2022-08-21T09:36:25;98552.84;;;21.19;57.22
48622;BME280;34421;48.944;9.460;2022-08-21T09:38:54;98557.94;;;21.26;56.85
48622;BME280;34421;48.944;9.460;2022-08-21T09:41:30;98551.16;;;21.33;55.98
48622;BME280;34421;48.944;9.460;2022-08-21T09:43:56;98551.97;;;21.39;55.45
48622;BME280;34421;48.944;9.460;2022-08-21T09:46:26;98541.63;;;21.46;55.96
48622;BME280;34421;48.944;9.460;2022-08-21T09:48:54;98545.66;;;21.54;55.29
48622;BME280;34421;48.944;9.460;2022-08-21T09:51:24;98549.66;;;21.61;55.00
48622;BME280;34421;48.944;9.460;2022-08-21T09:54:13;98537.69;;;21.68;54.25
48622;BME280;34421;48.944;9.460;2022-08-21T09:59:44;98544.34;;;21.85;53.60
48622;BME280;34421;48.944;9.460;2022-08-21T10:02:32;98543.22;;;21.92;53.48
48622;BME280;34421;48.944;9.460;2022-08-21T10:05:01;98543.50;;;21.95;53.56
48622;BME280;34421;48.944;9.460;2022-08-21T10:07:30;98537.50;;;21.98;51.77
48622;BME280;34421;48.944;9.460;2022-08-21T10:18:37;98525.31;;;22.30;50.99
48622;BME280;34421;48.944;9.460;2022-08-21T10:23:48;98520.03;;;22.44;49.33
48622;BME280;34421;48.944;9.460;2022-08-21T10:26:34;98516.41;;;22.53;49.08
48622;BME280;34421;48.944;9.460;2022-08-21T10:43:09;98507.94;;;23.08;47.92
48622;BME280;34421;48.944;9.460;2022-08-21T10:45:49;98504.88;;;23.15;47.66
48622;BME280;34421;48.944;9.460;2022-08-21T10:48:37;98498.47;;;23.25;47.73
48622;BME280;34421;48.944;9.460;2022-08-21T10:51:40;98499.44;;;23.34;45.01
48622;BME280;34421;48.944;9.460;2022-08-21T10:54:09;98496.44;;;23.35;45.06
48622;BME280;34421;48.944;9.460;2022-08-21T10:56:40;98502.63;;;23.41;44.72
48622;BME280;34421;48.944;9.460;2022-08-21T10:59:22;98496.81;;;23.48;44.81
48622;BME280;34421;48.944;9.460;2022-08-21T11:05:04;98496.50;;;23.68;44.84
48622;BME280;34421;48.944;9.460;2022-08-21T11:07:43;98492.84;;;23.78;44.71
48622;BME280;34421;48.944;9.460;2022-08-21T11:10:16;98496.22;;;23.88;44.49
48622;BME280;34421;48.944;9.460;2022-08-21T11:15:42;98485.38;;;24.02;43.02
48622;BME280;34421;48.944;9.460;2022-08-21T11:27:00;98484.28;;;24.50;43.30
48622;BME280;34421;48.944;9.460;2022-08-21T11:29:31;98468.38;;;24.57;43.20
48622;BME280;34421;48.944;9.460;2022-08-21T11:32:24;98468.94;;;24.68;42.32
48622;BME280;34421;48.944;9.460;2022-08-21T11:35:30;98473.59;;;24.81;42.91
48622;BME280;34421;48.944;9.460;2022-08-21T12:10:33;98448.31;;;26.21;38.93
48622;BME280;34421;48.944;9.460;2022-08-21T12:13:07;98442.56;;;26.31;38.06
48622;BME280;34421;48.944;9.460;2022-08-21T12:21:16;98440.84;;;26.75;36.24
48622;BME280;34421;48.944;9.460;2022-08-21T12:23:31;98444.69;;;26.82;36.45
48622;BME280;34421;48.944;9.460;2022-08-21T12:28:34;98432.88;;;27.39;37.30
48622;BME280;34421;48.944;9.460;2022-08-21T12:31:00;98435.59;;;27.74;37.35
48622;BME280;34421;48.944;9.460;2022-08-21T12:33:32;98429.13;;;28.05;36.67
48622;BME280;34421;48.944;9.460;2022-08-21T12:36:09;98416.75;;;28.37;36.92
48622;BME280;34421;48.944;9.460;2022-08-21T12:41:16;98424.44;;;28.82;34.35
48622;BME280;34421;48.944;9.460;2022-08-21T12:43:47;98423.72;;;28.94;33.15
48622;BME280;34421;48.944;9.460;2022-08-21T12:46:19;98415.19;;;28.95;31.71
48622;BME280;34421;48.944;9.460;2022-08-21T12:48:56;98415.13;;;28.83;31.43
48622;BME280;34421;48.944;9.460;2022-08-21T12:51:27;98411.84;;;28.90;32.11
48622;BME280;34421;48.944;9.460;2022-08-21T12:53:58;98411.41;;;29.08;31.68
48622;BME280;34421;48.944;9.460;2022-08-21T12:56:28;98403.19;;;29.29;30.55
48622;BME280;34421;48.944;9.460;2022-08-21T12:59:05;98403.22;;;29.42;31.13
48622;BME280;34421;48.944;9.460;2022-08-21T13:02:05;98400.19;;;29.77;31.70
48622;BME280;34421;48.944;9.460;2022-08-21T13:04:40;98392.25;;;29.96;30.65
48622;BME280;34421;48.944;9.460;2022-08-21T13:07:09;98387.47;;;30.17;31.27
48622;BME280;34421;48.944;9.460;2022-08-21T13:09:44;98399.25;;;30.18;30.35
48622;BME280;34421;48.944;9.460;2022-08-21T13:12:12;98391.41;;;30.29;29.19
48622;BME280;34421;48.944;9.460;2022-08-21T13:14:38;98401.22;;;30.30;28.20
48622;BME280;34421;48.944;9.460;2022-08-21T13:17:05;98398.22;;;30.10;27.75
48622;BME280;34421;48.944;9.460;2022-08-21T13:19:32;98406.50;;;30.23;28.03
48622;BME280;34421;48.944;9.460;2022-08-21T13:21:59;98402.84;;;30.43;27.49
48622;BME280;34421;48.944;9.460;2022-08-21T13:24:28;98394.13;;;30.65;27.91
48622;BME280;34421;48.944;9.460;2022-08-21T13:26:54;98388.63;;;30.90;28.33
48622;BME280;34421;48.944;9.460;2022-08-21T13:29:23;98397.25;;;31.17;27.89
48622;BME280;34421;48.944;9.460;2022-08-21T13:31:56;98393.09;;;31.35;26.86
48622;BME280;34421;48.944;9.460;2022-08-21T13:34:25;98384.44;;;31.49;27.28
48622;BME280;34421;48.944;9.460;2022-08-21T13:36:53;98385.09;;;31.58;27.43
48622;BME280;34421;48.944;9.460;2022-08-21T13:39:20;98384.44;;;31.77;26.77
48622;BME280;34421;48.944;9.460;2022-08-21T13:41:49;98379.41;;;31.95;27.33
48622;BME280;34421;48.944;9.460;2022-08-21T13:44:39;98381.19;;;32.19;27.21
48622;BME280;34421;48.944;9.460;2022-08-21T13:47:06;98377.91;;;32.13;27.48
48622;BME280;34421;48.944;9.460;2022-08-21T13:49:43;98386.44;;;32.08;26.41
48622;BME280;34421;48.944;9.460;2022-08-21T13:52:22;98388.13;;;32.13;26.56
48622;BME280;34421;48.944;9.460;2022-08-21T13:55:00;98379.47;;;32.30;27.03
48622;BME280;34421;48.944;9.460;2022-08-21T13:57:34;98377.19;;;32.48;25.75
48622;BME280;34421;48.944;9.460;2022-08-21T14:00:18;98383.75;;;31.96;26.39
48622;BME280;34421;48.944;9.460;2022-08-21T14:02:47;98377.94;;;31.69;27.34
48622;BME280;34421;48.944;9.460;2022-08-21T14:05:21;98377.47;;;31.95;26.74
48622;BME280;34421;48.944;9.460;2022-08-21T14:07:50;98376.38;;;32.00;25.18
48622;BME280;34421;48.944;9.460;2022-08-21T14:10:22;98375.78;;;32.22;27.71
48622;BME280;34421;48.944;9.460;2022-08-21T14:12:55;98373.38;;;32.53;26.70
48622;BME280;34421;48.944;9.460;2022-08-21T14:15:26;98363.41;;;32.83;27.84
48622;BME280;34421;48.944;9.460;2022-08-21T14:17:53;98360.28;;;33.01;26.81
48622;BME280;34421;48.944;9.460;2022-08-21T14:20:31;98359.09;;;33.02;24.91
48622;BME280;34421;48.944;9.460;2022-08-21T14:22:58;98369.81;;;32.87;24.39
48622;BME280;34421;48.944;9.460;2022-08-21T14:28:08;98369.72;;;33.19;24.36
48622;BME280;34421;48.944;9.460;2022-08-21T14:30:39;98364.56;;;33.37;24.88
48622;BME280;34421;48.944;9.460;2022-08-21T14:33:10;98362.88;;;33.52;23.97
48622;BME280;34421;48.944;9.460;2022-08-21T14:35:36;98354.38;;;33.61;24.29
48622;BME280;34421;48.944;9.460;2022-08-21T14:38:01;98354.28;;;33.76;24.65
48622;BME280;34421;48.944;9.460;2022-08-21T14:40:27;98353.78;;;33.94;24.81
48622;BME280;34421;48.944;9.460;2022-08-21T14:42:53;98353.03;;;33.97;23.24
48622;BME280;34421;48.944;9.460;2022-08-21T14:45:28;98354.06;;;34.08;23.12
48622;BME280;34421;48.944;9.460;2022-08-21T14:47:55;98354.59;;;34.17;24.27
48622;BME280;34421;48.944;9.460;2022-08-21T14:50:21;98346.84;;;34.26;23.63
48622;BME280;34421;48.944;9.460;2022-08-21T14:52:47;98341.75;;;34.29;22.99
48622;BME280;34421;48.944;9.460;2022-08-21T14:55:14;98337.94;;;34.37;23.19